A39

Ak-Chin Regional Airport

Maricopa, Arizona, USA
METAR KA39 122155Z AUTO 30009KT 10SM CLR 18/04 A3007 RMK AO2
Observed Flight Rules
Dec-12 @ 21:55 UTC (17 minutes ago) Visual Flight Rules
Wind Visibility Clouds
300° at 9 knots 10 miles
  • Clear skies
Temperatures Readings
Current 18°C / 64°F
Dewpoint 4°C / 39°F
Humidity 40%
Altimeter 30.07" Hg
Pressure 1018 hPa
Elevation 396
METAR KA39 122155Z AUTO 30009KT 10SM CLR 18/04 A3007 RMK AO2
Observed Flight Rules
Dec-12 @ 21:55 UTC
(17 minutes ago)
VFR
Wind Visibility
300° at 9 knots 10 miles
Clouds
  • Clear skies
Temperature Dewpoint
18°C / 64°F 4°C / 39°F
Humidity Altimeter Pressure
40% 30.07" Hg 1018 hPa